Time;durP1;ratioP1;P1;durP2;ratioP2;P2;SDS_P1;SDS_P2;PMS_P1;PMS_P2;Temp;Humidity;BMP_temperature;BMP_pressure;BME280_temperature;BME280_humidity;BME280_pressure;Samples;Min_cycle;Max_cycle;Signal;HPM_P1;HPM_P2
2024/01/28 00:02:15;;;;;;;14.57;5.80;;;3.40;51.20;;;;;;5121298;28;20950;-76
2024/01/28 00:04:41;;;;;;;19.30;7.07;;;3.30;51.60;;;;;;5120315;28;20387;-75
2024/01/28 00:07:06;;;;;;;17.03;5.90;;;3.20;51.80;;;;;;5118196;28;20381;-76
2024/01/28 00:09:32;;;;;;;14.90;5.50;;;3.20;51.80;;;;;;5114572;28;20395;-76
2024/01/28 00:11:57;;;;;;;18.47;5.90;;;3.10;51.70;;;;;;5113534;28;20772;-76
2024/01/28 00:14:23;;;;;;;21.13;6.53;;;3.10;52.20;;;;;;5113116;28;20391;-75
2024/01/28 00:16:49;;;;;;;18.57;6.13;;;3.00;52.40;;;;;;5113766;28;20387;-75
2024/01/28 00:19:14;;;;;;;15.50;5.22;;;3.00;52.40;;;;;;5112633;28;20509;-76
2024/01/28 00:21:40;;;;;;;12.83;5.50;;;3.00;52.40;;;;;;5112975;28;20404;-76
2024/01/28 00:24:06;;;;;;;17.87;6.33;;;2.90;52.20;;;;;;5094731;28;20992;-75
2024/01/28 00:26:39;;;;;;;17.37;6.20;;;3.00;52.60;;;;;;5094041;28;20746;-75
2024/01/28 00:29:05;;;;;;;16.50;5.72;;;2.90;52.70;;;;;;5112223;28;20384;-75
2024/01/28 00:31:31;;;;;;;16.47;5.90;;;3.10;52.40;;;;;;5112304;28;20457;-75
2024/01/28 00:33:57;;;;;;;19.00;6.00;;;3.00;51.60;;;;;;5112216;28;20399;-76
2024/01/28 00:36:23;;;;;;;19.05;6.45;;;3.10;51.10;;;;;;5112198;28;20380;-78
2024/01/28 00:38:49;;;;;;;16.35;6.30;;;3.00;51.10;;;;;;5112272;28;20910;-76
2024/01/28 00:41:29;;;;;;;11.43;4.82;;;3.00;51.40;;;;;;5112311;28;20404;-76
2024/01/28 00:43:55;;;;;;;11.20;5.45;;;3.00;51.30;;;;;;5111760;28;20425;-76
2024/01/28 00:46:24;;;;;;;17.95;5.50;;;3.00;50.90;;;;;;5094285;28;20379;-76
2024/01/28 00:48:49;;;;;;;13.23;5.18;;;3.10;50.00;;;;;;5112091;28;20384;-76
2024/01/28 00:51:15;;;;;;;18.65;5.93;;;3.00;50.10;;;;;;5112012;28;20376;-76
2024/01/28 00:53:41;;;;;;;17.30;5.65;;;3.00;50.10;;;;;;5112650;28;20416;-76
2024/01/28 00:56:07;;;;;;;22.85;6.80;;;2.90;50.40;;;;;;5094189;28;20380;-76
2024/01/28 00:58:33;;;;;;;15.05;5.35;;;3.10;50.20;;;;;;5112051;28;20867;-76
2024/01/28 01:00:58;;;;;;;13.10;5.50;;;3.00;49.90;;;;;;5111967;28;20406;-75
2024/01/28 01:03:24;;;;;;;14.17;5.30;;;3.00;49.80;;;;;;5093569;28;20376;-75
2024/01/28 01:05:49;;;;;;;16.88;4.90;;;3.00;50.20;;;;;;5093803;28;20384;-75
2024/01/28 01:08:16;;;;;;;13.75;5.00;;;3.00;49.90;;;;;;5112873;28;20770;-76
2024/01/28 01:10:42;;;;;;;15.00;5.15;;;3.00;49.80;;;;;;5112364;28;20384;-74
2024/01/28 01:13:07;;;;;;;17.95;5.80;;;2.90;49.80;;;;;;5093307;28;20874;-76
2024/01/28 01:15:33;;;;;;;13.40;5.23;;;3.00;49.80;;;;;;5112012;28;20433;-76
2024/01/28 01:17:59;;;;;;;13.57;4.72;;;3.00;50.10;;;;;;5111814;28;20851;-74
2024/01/28 01:20:24;;;;;;;15.45;4.57;;;3.10;49.50;;;;;;5111989;28;20489;-74
2024/01/28 01:22:50;;;;;;;22.63;5.80;;;3.10;48.70;;;;;;5112016;28;20384;-76
2024/01/28 01:25:16;;;;;;;14.00;5.70;;;3.10;50.10;;;;;;5112515;28;20404;-76
2024/01/28 01:27:41;;;;;;;12.38;4.70;;;3.00;49.60;;;;;;5112621;28;20373;-75
2024/01/28 01:30:10;;;;;;;19.52;4.95;;;3.00;50.00;;;;;;5112293;28;20410;-74
2024/01/28 01:32:37;;;;;;;13.53;5.33;;;3.00;50.20;;;;;;5112862;28;20385;-75
2024/01/28 01:35:03;;;;;;;13.00;4.43;;;3.10;49.50;;;;;;5112838;28;20778;-75
2024/01/28 01:37:29;;;;;;;14.32;5.68;;;3.10;49.50;;;;;;5112171;28;20441;-74
2024/01/28 01:39:54;;;;;;;15.90;5.70;;;3.10;49.50;;;;;;5112264;28;20385;-75
2024/01/28 01:42:20;;;;;;;17.23;5.80;;;3.00;50.10;;;;;;5112277;28;20404;-76
2024/01/28 01:44:45;;;;;;;15.57;5.90;;;3.10;49.80;;;;;;5112876;28;20724;-74
2024/01/28 01:47:11;;;;;;;12.05;5.28;;;3.10;50.30;;;;;;5113190;28;20862;-75
2024/01/28 01:49:37;;;;;;;10.55;4.90;;;3.10;50.60;;;;;;5115897;28;20376;-75
2024/01/28 01:52:04;;;;;;;21.47;6.47;;;3.00;50.80;;;;;;5116461;28;20380;-75
2024/01/28 01:54:30;;;;;;;17.80;5.03;;;3.10;50.60;;;;;;5081359;28;20417;-76
2024/01/28 01:56:56;;;;;;;12.00;4.33;;;3.10;50.20;;;;;;5117154;28;20463;-75
2024/01/28 01:59:22;;;;;;;12.82;4.50;;;3.10;49.90;;;;;;5115522;28;20384;-77
2024/01/28 02:01:48;;;;;;;17.50;5.15;;;3.10;50.10;;;;;;5114749;28;20407;-76
2024/01/28 02:04:14;;;;;;;15.65;4.20;;;3.00;50.40;;;;;;5115241;28;20381;-76
2024/01/28 02:06:39;;;;;;;13.23;4.32;;;3.00;50.50;;;;;;5115445;28;20433;-75
2024/01/28 02:09:06;;;;;;;13.18;4.70;;;2.90;50.80;;;;;;5115520;28;20376;-76
2024/01/28 02:11:32;;;;;;;20.35;5.00;;;2.90;51.00;;;;;;5115466;28;20753;-76
2024/01/28 02:13:58;;;;;;;14.90;4.50;;;2.90;51.00;;;;;;5114427;28;20377;-76
2024/01/28 02:16:27;;;;;;;12.00;4.00;;;2.90;51.40;;;;;;5114167;28;20416;-76
2024/01/28 02:18:52;;;;;;;14.45;4.63;;;2.90;51.40;;;;;;5113950;28;20416;-75
2024/01/28 02:21:18;;;;;;;16.27;4.53;;;2.90;51.00;;;;;;5113846;28;20439;-75
2024/01/28 02:23:43;;;;;;;15.17;5.00;;;2.90;51.10;;;;;;5114961;28;20861;-75
2024/01/28 02:26:09;;;;;;;12.87;4.37;;;2.90;51.20;;;;;;5114439;28;20441;-76
2024/01/28 02:28:34;;;;;;;12.60;5.03;;;3.00;50.70;;;;;;5113642;28;20880;-76
2024/01/28 02:31:00;;;;;;;13.00;4.53;;;2.90;51.30;;;;;;5113526;28;20687;-75
2024/01/28 02:33:25;;;;;;;13.65;5.50;;;3.00;51.00;;;;;;5113733;28;20388;-76
2024/01/28 02:35:51;;;;;;;16.20;5.13;;;3.00;51.00;;;;;;5113831;28;20387;-74
2024/01/28 02:38:17;;;;;;;12.35;4.60;;;2.90;51.10;;;;;;5106790;22;20448;-72
2024/01/28 02:40:43;;;;;;;15.07;4.72;;;2.90;51.40;;;;;;5054956;28;20846;-70
2024/01/28 02:43:09;;;;;;;12.95;4.60;;;3.00;51.60;;;;;;5054346;28;20422;-72
2024/01/28 02:45:34;;;;;;;11.70;3.73;;;3.10;50.70;;;;;;5053053;28;20497;-71
2024/01/28 02:48:00;;;;;;;10.77;4.60;;;3.00;50.20;;;;;;5052170;28;20466;-71
2024/01/28 02:50:25;;;;;;;14.43;4.60;;;3.10;50.00;;;;;;5052151;28;20887;-71
2024/01/28 02:52:51;;;;;;;11.13;5.10;;;3.10;49.90;;;;;;5052061;28;20438;-71
2024/01/28 02:55:16;;;;;;;15.63;4.83;;;3.10;49.90;;;;;;5052142;28;20393;-71
2024/01/28 02:57:42;;;;;;;15.95;4.90;;;3.10;50.00;;;;;;5052007;28;20867;-71
2024/01/28 03:00:08;;;;;;;14.82;4.28;;;3.10;49.30;;;;;;5050878;28;20385;-71
2024/01/28 03:02:33;;;;;;;15.80;4.47;;;3.10;49.20;;;;;;5033825;28;20393;-71
2024/01/28 03:04:59;;;;;;;9.20;4.23;;;3.10;49.30;;;;;;5034144;28;20388;-71
2024/01/28 03:07:24;;;;;;;14.67;3.87;;;3.10;49.70;;;;;;5051947;28;20480;-69
2024/01/28 03:09:50;;;;;;;14.57;4.80;;;3.00;49.80;;;;;;5051914;28;20408;-71
2024/01/28 03:12:15;;;;;;;13.57;4.20;;;3.10;49.30;;;;;;5051684;28;20460;-70
2024/01/28 03:14:41;;;;;;;13.70;4.23;;;3.10;49.00;;;;;;5051892;28;20560;-72
2024/01/28 03:17:06;;;;;;;13.07;4.53;;;3.00;49.50;;;;;;5051639;28;20381;-71
2024/01/28 03:19:32;;;;;;;8.77;4.30;;;2.90;49.80;;;;;;5051778;28;20389;-71
2024/01/28 03:21:58;;;;;;;12.95;4.05;;;2.90;49.90;;;;;;5051188;28;20406;-71
2024/01/28 03:24:23;;;;;;;9.32;3.53;;;2.90;49.80;;;;;;5051630;28;20768;-71
2024/01/28 03:26:49;;;;;;;20.33;3.92;;;3.00;49.50;;;;;;5051587;28;20396;-70
2024/01/28 03:29:15;;;;;;;11.63;3.80;;;3.00;48.70;;;;;;5051836;28;20386;-70
2024/01/28 03:31:40;;;;;;;10.43;3.97;;;3.00;49.10;;;;;;5051211;28;20385;-70
2024/01/28 03:34:06;;;;;;;13.68;4.18;;;3.10;48.70;;;;;;5051538;28;20748;-72
2024/01/28 03:36:32;;;;;;;14.43;4.47;;;3.10;48.40;;;;;;5051678;28;20761;-71
2024/01/28 03:38:57;;;;;;;13.23;4.07;;;3.10;49.00;;;;;;5051347;28;20404;-71
2024/01/28 03:41:23;;;;;;;11.75;3.90;;;3.20;48.10;;;;;;5051207;28;20819;-71
2024/01/28 03:43:49;;;;;;;9.45;3.90;;;3.10;48.40;;;;;;5051317;28;20439;-70
2024/01/28 03:46:14;;;;;;;11.82;4.13;;;3.10;48.50;;;;;;5051481;28;20735;-71
2024/01/28 03:48:40;;;;;;;13.30;4.20;;;3.10;48.50;;;;;;5051380;28;20435;-70
2024/01/28 03:51:06;;;;;;;15.00;4.50;;;3.10;47.90;;;;;;5051137;28;20392;-72
2024/01/28 03:53:32;;;;;;;14.80;4.70;;;3.20;47.50;;;;;;5051234;28;20393;-71
2024/01/28 03:55:58;;;;;;;9.10;4.07;;;3.10;48.10;;;;;;5051007;28;20385;-72
2024/01/28 03:58:23;;;;;;;9.25;3.97;;;3.10;48.10;;;;;;5033439;28;20446;-70
2024/01/28 04:00:49;;;;;;;17.77;3.72;;;3.10;47.70;;;;;;5051237;28;20900;-72
2024/01/28 04:03:15;;;;;;;10.50;3.72;;;3.10;47.50;;;;;;5051312;28;20435;-72
2024/01/28 04:05:42;;;;;;;12.93;3.40;;;3.10;47.00;;;;;;5051293;28;20444;-72
2024/01/28 04:08:11;;;;;;;14.25;4.00;;;3.20;46.30;;;;;;5051235;28;20460;-72
2024/01/28 04:10:36;;;;;;;14.95;4.10;;;3.30;45.60;;;;;;5050475;28;20462;-72
2024/01/28 04:13:02;;;;;;;8.73;3.60;;;3.20;46.10;;;;;;5050710;28;20465;-71
2024/01/28 04:15:28;;;;;;;10.30;4.07;;;3.20;45.80;;;;;;5050842;28;20393;-71
2024/01/28 04:17:53;;;;;;;10.70;3.50;;;3.30;45.80;;;;;;5050515;28;20481;-72
2024/01/28 04:20:19;;;;;;;10.87;3.60;;;3.30;45.90;;;;;;5050502;28;20390;-71
2024/01/28 04:22:44;;;;;;;8.97;3.50;;;3.30;44.80;;;;;;5050482;28;20422;-70
2024/01/28 04:25:10;;;;;;;11.70;3.90;;;3.20;44.80;;;;;;5032622;28;20381;-70
2024/01/28 04:27:36;;;;;;;8.83;3.23;;;3.30;45.20;;;;;;5050391;28;20385;-72
2024/01/28 04:30:01;;;;;;;11.02;3.47;;;3.40;44.10;;;;;;5050390;28;20384;-70
2024/01/28 04:32:27;;;;;;;10.10;3.40;;;3.40;43.80;;;;;;5050224;28;20421;-71
2024/01/28 04:34:52;;;;;;;8.43;3.20;;;3.50;42.10;;;;;;5050436;28;20476;-70
2024/01/28 04:37:18;;;;;;;7.88;3.47;;;3.50;41.80;;;;;;5050344;28;20424;-71
2024/01/28 04:39:44;;;;;;;6.72;3.00;;;3.50;41.70;;;;;;5050834;28;20397;-71
2024/01/28 04:42:10;;;;;;;10.48;3.35;;;3.50;41.00;;;;;;5050553;28;20413;-71
2024/01/28 04:44:35;;;;;;;9.88;3.03;;;3.50;40.50;;;;;;5050556;28;20894;-71
2024/01/28 04:47:02;;;;;;;8.80;3.50;;;3.50;40.40;;;;;;5052016;28;20385;-71
2024/01/28 04:49:27;;;;;;;6.47;2.83;;;3.50;40.10;;;;;;5053908;28;20951;-71
2024/01/28 04:51:53;;;;;;;8.73;2.90;;;3.50;40.10;;;;;;5052916;28;20474;-70
2024/01/28 04:54:19;;;;;;;6.53;3.05;;;3.40;40.20;;;;;;5033533;28;20409;-71
2024/01/28 04:56:45;;;;;;;7.03;2.80;;;3.40;40.00;;;;;;5032925;28;20377;-71
2024/01/28 04:59:10;;;;;;;8.48;2.80;;;3.40;39.50;;;;;;5050830;28;20469;-71
2024/01/28 05:01:36;;;;;;;9.02;3.10;;;3.50;39.60;;;;;;5050378;28;20892;-71
2024/01/28 05:04:02;;;;;;;8.98;3.35;;;3.50;39.30;;;;;;5032522;28;20895;-71
2024/01/28 05:06:34;;;;;;;7.00;3.30;;;3.50;38.70;;;;;;5050703;28;20932;-72
2024/01/28 05:09:04;;;;;;;7.30;2.80;;;3.50;38.70;;;;;;5050554;28;20384;-71
2024/01/28 05:11:32;;;;;;;7.22;2.58;;;3.50;38.90;;;;;;5050245;28;20435;-71
2024/01/28 05:13:59;;;;;;;8.00;2.90;;;3.50;38.40;;;;;;5050260;28;20445;-71
2024/01/28 05:16:25;;;;;;;5.73;2.20;;;3.50;38.20;;;;;;5032574;28;20477;-70
2024/01/28 05:18:54;;;;;;;15.38;2.65;;;3.60;37.80;;;;;;5050276;28;20468;-71
2024/01/28 05:21:19;;;;;;;9.70;2.80;;;3.60;38.00;;;;;;5050038;28;20405;-71
2024/01/28 05:23:50;;;;;;;10.73;3.20;;;3.60;38.00;;;;;;5034577;28;20391;-71
2024/01/28 05:26:17;;;;;;;5.15;2.72;;;3.40;38.40;;;;;;5054127;28;20392;-71
2024/01/28 05:28:42;;;;;;;12.57;2.70;;;3.50;38.70;;;;;;5054201;28;20385;-71
2024/01/28 05:31:08;;;;;;;12.25;2.97;;;3.40;38.60;;;;;;5054230;28;20755;-70
2024/01/28 05:33:37;;;;;;;9.10;2.70;;;3.30;39.00;;;;;;5054401;28;20911;-71
2024/01/28 05:36:13;;;;;;;5.88;2.90;;;3.30;39.00;;;;;;5054430;28;20787;-71
2024/01/28 05:38:39;;;;;;;9.83;3.27;;;3.20;39.10;;;;;;5054698;28;20505;-71
2024/01/28 05:41:06;;;;;;;9.20;3.08;;;3.20;39.40;;;;;;5054099;28;20775;-71
2024/01/28 05:43:32;;;;;;;11.43;2.90;;;3.30;39.20;;;;;;5054413;28;20789;-73
2024/01/28 05:45:59;;;;;;;6.40;2.83;;;3.20;38.90;;;;;;5036479;28;20434;-71
2024/01/28 05:48:25;;;;;;;9.98;3.22;;;3.20;39.40;;;;;;5054062;28;20933;-71
2024/01/28 05:50:50;;;;;;;8.30;3.37;;;3.20;39.60;;;;;;5054249;28;20472;-71
2024/01/28 05:53:16;;;;;;;10.50;3.50;;;3.20;39.40;;;;;;5054245;28;20392;-71
2024/01/28 05:55:41;;;;;;;12.53;3.37;;;3.20;39.70;;;;;;5053731;28;20905;-71
2024/01/28 05:58:07;;;;;;;7.23;3.10;;;3.20;40.20;;;;;;5053522;28;20926;-71
2024/01/28 06:00:32;;;;;;;5.23;2.87;;;3.30;39.80;;;;;;5053495;28;20406;-70
2024/01/28 06:02:58;;;;;;;11.77;3.17;;;3.10;39.90;;;;;;5053858;28;20930;-70
2024/01/28 06:05:23;;;;;;;6.80;2.70;;;3.20;40.20;;;;;;5053463;28;21121;-70
2024/01/28 06:07:49;;;;;;;4.10;2.80;;;3.20;39.70;;;;;;5053760;28;20927;-71
2024/01/28 06:10:15;;;;;;;7.70;2.65;;;3.10;39.90;;;;;;5053491;28;20385;-71
2024/01/28 06:12:40;;;;;;;6.05;3.30;;;3.00;40.10;;;;;;5053248;28;20386;-71
2024/01/28 06:15:08;;;;;;;10.48;2.95;;;3.10;39.80;;;;;;5053440;28;20747;-71
2024/01/28 06:17:36;;;;;;;6.82;2.88;;;3.10;40.00;;;;;;5053369;28;20378;-72
2024/01/28 06:20:04;;;;;;;10.13;2.33;;;3.20;39.70;;;;;;5053318;28;20755;-71
2024/01/28 06:22:29;;;;;;;7.10;2.80;;;3.20;39.40;;;;;;5053070;28;20859;-71
2024/01/28 06:24:55;;;;;;;16.70;3.30;;;3.20;39.40;;;;;;5053279;28;20420;-71
2024/01/28 06:27:20;;;;;;;12.05;3.70;;;3.20;39.80;;;;;;5053170;28;20386;-71
2024/01/28 06:29:47;;;;;;;9.17;3.20;;;3.20;39.70;;;;;;5053411;28;20508;-71
2024/01/28 06:32:13;;;;;;;9.18;2.50;;;3.30;39.10;;;;;;5052913;28;20419;-71
2024/01/28 06:34:38;;;;;;;11.35;3.20;;;3.30;39.30;;;;;;5052914;28;20389;-70
2024/01/28 06:37:04;;;;;;;10.75;3.15;;;3.30;39.30;;;;;;5052669;28;20835;-70
2024/01/28 06:39:30;;;;;;;8.02;2.70;;;3.20;40.50;;;;;;5053784;28;20492;-70
2024/01/28 06:41:55;;;;;;;6.35;2.88;;;3.20;40.20;;;;;;5055017;28;20404;-70
2024/01/28 06:44:21;;;;;;;11.27;3.70;;;3.20;40.00;;;;;;5054392;28;20472;-70
2024/01/28 06:46:47;;;;;;;9.33;2.87;;;3.20;40.40;;;;;;5054458;28;20747;-70
2024/01/28 06:49:13;;;;;;;8.38;3.20;;;3.20;40.10;;;;;;5053789;28;20415;-70
2024/01/28 06:51:42;;;;;;;8.20;2.90;;;3.10;40.60;;;;;;5054267;28;20775;-70
2024/01/28 06:54:08;;;;;;;9.07;3.20;;;3.10;40.20;;;;;;5053018;28;20407;-70
2024/01/28 06:56:33;;;;;;;7.97;2.90;;;3.10;39.80;;;;;;5053126;28;20385;-71
2024/01/28 06:58:59;;;;;;;8.20;3.20;;;3.20;39.90;;;;;;5052385;28;20386;-70
2024/01/28 07:01:24;;;;;;;9.60;3.47;;;3.00;40.30;;;;;;5052428;28;20470;-70
2024/01/28 07:03:50;;;;;;;8.95;2.88;;;3.00;40.20;;;;;;5053276;28;20417;-71
2024/01/28 07:06:16;;;;;;;6.28;3.17;;;3.00;40.40;;;;;;5041769;28;20393;-72
2024/01/28 07:08:42;;;;;;;6.80;2.75;;;3.00;40.30;;;;;;5053203;28;20397;-72
2024/01/28 07:11:08;;;;;;;9.30;3.08;;;2.90;40.40;;;;;;5052665;28;20400;-71
2024/01/28 07:13:34;;;;;;;7.35;2.85;;;2.90;40.70;;;;;;5053407;28;20389;-71
2024/01/28 07:15:59;;;;;;;8.27;3.10;;;2.90;40.90;;;;;;5052519;28;20779;-71
2024/01/28 07:18:25;;;;;;;9.67;3.80;;;2.90;41.50;;;;;;5052732;28;20413;-70
2024/01/28 07:20:50;;;;;;;12.43;3.87;;;2.80;41.90;;;;;;5063516;28;20475;-71
2024/01/28 07:23:16;;;;;;;8.60;3.50;;;3.00;43.50;;;;;;5051819;28;20393;-71
2024/01/28 07:25:41;;;;;;;7.50;3.33;;;3.10;43.10;;;;;;5062532;28;20387;-71
2024/01/28 07:28:07;;;;;;;8.80;3.57;;;3.00;43.30;;;;;;5072706;28;20390;-71
2024/01/28 07:30:32;;;;;;;7.07;3.27;;;3.00;43.00;;;;;;5070436;28;20391;-71
2024/01/28 07:32:58;;;;;;;10.63;3.10;;;3.10;41.80;;;;;;5047026;28;20405;-71
2024/01/28 07:35:24;;;;;;;7.53;3.00;;;3.10;40.10;;;;;;5061775;28;20385;-71
2024/01/28 07:37:49;;;;;;;6.95;2.85;;;3.10;40.80;;;;;;5052032;28;20537;-71
2024/01/28 07:40:15;;;;;;;7.60;3.05;;;3.20;40.20;;;;;;5069495;28;20391;-71
2024/01/28 07:42:40;;;;;;;8.38;4.03;;;3.10;39.80;;;;;;5064075;28;20385;-72
2024/01/28 07:45:06;;;;;;;7.72;3.30;;;3.20;40.20;;;;;;5049774;28;20892;-73
2024/01/28 07:47:32;;;;;;;9.18;3.75;;;3.20;39.10;;;;;;5055144;28;20392;-73
2024/01/28 07:49:59;;;;;;;11.67;4.33;;;3.20;39.30;;;;;;5068095;28;20910;-72
2024/01/28 07:52:24;;;;;;;5.85;3.10;;;3.30;39.00;;;;;;5066633;28;20387;-73
2024/01/28 07:54:50;;;;;;;10.10;3.50;;;3.30;38.30;;;;;;5053273;28;20397;-73
2024/01/28 07:57:15;;;;;;;8.60;4.20;;;3.30;37.90;;;;;;5048787;28;20385;-73
2024/01/28 07:59:41;;;;;;;10.63;4.40;;;3.40;38.00;;;;;;5064103;28;20464;-74
2024/01/28 08:02:07;;;;;;;10.30;4.37;;;3.50;37.80;;;;;;5066973;28;20430;-73
2024/01/28 08:04:32;;;;;;;11.13;3.87;;;3.50;37.70;;;;;;5037306;28;20752;-72
2024/01/28 08:06:58;;;;;;;8.43;3.78;;;3.60;36.90;;;;;;5049726;28;20416;-73
2024/01/28 08:09:24;;;;;;;6.80;3.58;;;3.70;36.40;;;;;;5052835;28;20396;-73
2024/01/28 08:11:49;;;;;;;7.50;3.43;;;3.70;36.60;;;;;;5065392;28;20438;-72
2024/01/28 08:14:15;;;;;;;12.67;4.70;;;3.70;36.40;;;;;;5068842;28;20724;-73
2024/01/28 08:16:40;;;;;;;8.47;3.17;;;3.80;36.50;;;;;;5068595;28;20417;-73
2024/01/28 08:19:06;;;;;;;8.17;3.87;;;3.90;35.50;;;;;;5067976;28;20380;-73
2024/01/28 08:21:31;;;;;;;9.40;3.37;;;4.00;35.70;;;;;;5057069;28;20807;-72
2024/01/28 08:23:57;;;;;;;12.30;4.10;;;4.00;35.30;;;;;;5049388;28;20393;-73
2024/01/28 08:26:23;;;;;;;11.53;3.10;;;4.10;35.20;;;;;;5067125;28;20478;-73
2024/01/28 08:28:49;;;;;;;9.25;3.47;;;4.20;34.80;;;;;;5049639;28;20517;-73
2024/01/28 08:31:14;;;;;;;5.72;3.30;;;4.30;34.50;;;;;;5067520;28;20846;-73
2024/01/28 08:33:40;;;;;;;5.03;2.70;;;4.40;34.00;;;;;;5065621;28;20682;-73
2024/01/28 08:36:06;;;;;;;9.20;3.60;;;4.40;33.80;;;;;;5047915;28;20410;-73
2024/01/28 08:38:32;;;;;;;10.63;3.30;;;4.50;34.20;;;;;;5074330;22;20438;-76
2024/01/28 08:40:57;;;;;;;10.88;3.65;;;4.50;33.80;;;;;;5088188;28;20437;-76
2024/01/28 08:43:23;;;;;;;11.32;3.70;;;4.60;33.90;;;;;;5088304;28;20832;-75
2024/01/28 08:45:49;;;;;;;8.32;3.97;;;4.70;33.50;;;;;;5087992;28;20382;-76
2024/01/28 08:48:15;;;;;;;11.38;4.25;;;4.80;33.40;;;;;;5092951;28;20384;-75
2024/01/28 08:50:40;;;;;;;11.93;4.65;;;4.90;33.20;;;;;;5108859;28;20485;-75
2024/01/28 08:53:07;;;;;;;11.68;4.25;;;5.10;33.30;;;;;;5108529;28;20384;-72
2024/01/28 08:55:33;;;;;;;8.00;3.75;;;5.20;33.00;;;;;;5107616;28;20386;-76
2024/01/28 08:57:59;;;;;;;11.65;3.80;;;5.40;33.00;;;;;;5110039;28;20391;-75
2024/01/28 09:00:24;;;;;;;9.53;3.40;;;5.50;31.80;;;;;;5112929;28;20384;-73
2024/01/28 09:02:50;;;;;;;13.30;4.77;;;5.60;31.20;;;;;;5113624;28;20388;-72
2024/01/28 09:05:15;;;;;;;8.40;3.50;;;5.70;31.80;;;;;;5111914;28;20846;-73
2024/01/28 09:07:41;;;;;;;8.10;3.40;;;5.80;30.80;;;;;;5096461;28;20391;-73
2024/01/28 09:10:07;;;;;;;9.50;4.10;;;5.90;30.40;;;;;;5113711;28;20388;-74
2024/01/28 09:12:33;;;;;;;7.50;3.43;;;6.00;30.70;;;;;;5112839;28;20428;-72
2024/01/28 09:14:59;;;;;;;11.43;4.00;;;6.20;29.70;;;;;;5102509;28;20435;-72
2024/01/28 09:17:24;;;;;;;11.30;3.40;;;6.30;29.80;;;;;;5109032;28;20391;-74
2024/01/28 09:19:50;;;;;;;5.80;3.40;;;6.30;28.90;;;;;;5099629;28;20393;-73
2024/01/28 09:22:15;;;;;;;12.00;4.10;;;6.50;29.30;;;;;;5110548;28;20408;-74
2024/01/28 09:24:41;;;;;;;9.63;4.07;;;6.50;29.00;;;;;;5108893;28;20423;-74
2024/01/28 09:27:06;;;;;;;8.60;3.47;;;6.60;29.40;;;;;;5096848;28;20370;-73
2024/01/28 09:29:32;;;;;;;7.40;4.03;;;6.70;28.10;;;;;;5095580;28;20382;-74
2024/01/28 09:31:59;;;;;;;7.03;2.90;;;6.90;28.70;;;;;;5092881;28;20416;-73
2024/01/28 09:34:24;;;;;;;7.55;3.22;;;7.90;26.30;;;;;;5108542;28;20462;-71
2024/01/28 09:36:50;;;;;;;10.73;4.47;;;8.20;24.00;;;;;;5112103;28;20881;-71
2024/01/28 09:39:17;;;;;;;8.50;3.67;;;8.00;25.10;;;;;;5090007;28;20900;-73
2024/01/28 09:42:08;;;;;;;11.50;3.40;;;7.90;25.40;;;;;;5091216;28;20402;-70
2024/01/28 09:44:34;;;;;;;7.70;2.75;;;7.70;25.70;;;;;;5094501;28;20457;-74
2024/01/28 09:47:00;;;;;;;7.95;3.20;;;7.50;25.70;;;;;;5113198;28;20408;-72
2024/01/28 09:49:27;;;;;;;9.60;3.20;;;7.50;26.40;;;;;;5094424;28;20384;-74
2024/01/28 09:51:53;;;;;;;8.65;3.72;;;7.40;26.50;;;;;;5110904;28;20388;-72
2024/01/28 09:54:19;;;;;;;12.00;4.00;;;7.50;26.50;;;;;;5104272;28;20388;-74
2024/01/28 09:56:45;;;;;;;12.53;4.20;;;7.50;26.60;;;;;;5100287;28;20741;-73
2024/01/28 09:59:13;;;;;;;10.40;3.25;;;7.70;26.60;;;;;;5110504;28;20427;-74
2024/01/28 10:01:42;;;;;;;10.10;3.00;;;7.60;25.60;;;;;;5105464;28;20441;-73
2024/01/28 10:04:10;;;;;;;9.15;3.55;;;7.70;25.20;;;;;;5092554;28;20402;-73
2024/01/28 10:06:36;;;;;;;6.65;3.40;;;7.60;25.10;;;;;;5094282;28;20938;-72
2024/01/28 10:09:02;;;;;;;9.68;3.80;;;7.70;25.50;;;;;;5092414;28;20385;-72
2024/01/28 10:11:28;;;;;;;13.32;4.53;;;7.70;25.40;;;;;;5093585;28;20474;-74
2024/01/28 10:13:54;;;;;;;11.68;5.05;;;7.70;25.10;;;;;;5112100;28;20480;-73
2024/01/28 10:16:30;;;;;;;5.00;3.20;;;7.80;25.50;;;;;;5101819;28;20461;-71
2024/01/28 10:18:55;;;;;;;13.60;4.65;;;7.80;24.50;;;;;;5105362;28;20394;-72
2024/01/28 10:21:21;;;;;;;9.60;3.92;;;7.90;25.00;;;;;;5104795;28;20461;-72
2024/01/28 10:23:47;;;;;;;10.05;4.32;;;8.00;24.50;;;;;;5112393;28;20393;-72
2024/01/28 10:26:12;;;;;;;7.35;3.63;;;8.00;25.30;;;;;;5109344;28;20393;-72
2024/01/28 10:28:38;;;;;;;8.63;4.15;;;8.00;25.40;;;;;;5110180;28;20398;-71
2024/01/28 10:31:04;;;;;;;12.35;4.80;;;8.10;25.00;;;;;;5108141;28;20417;-71
2024/01/28 10:33:30;;;;;;;7.60;3.30;;;8.20;25.20;;;;;;5092825;28;20396;-71
2024/01/28 10:36:03;;;;;;;11.88;4.90;;;8.30;24.20;;;;;;5107890;28;20395;-71
2024/01/28 10:38:31;;;;;;;10.77;4.60;;;8.20;23.90;;;;;;5104392;28;20758;-72
2024/01/28 10:40:58;;;;;;;11.07;4.85;;;8.20;23.90;;;;;;5098239;28;20492;-72
2024/01/28 10:43:27;;;;;;;11.38;4.10;;;8.40;24.40;;;;;;5114099;28;20372;-69
2024/01/28 10:45:55;;;;;;;12.82;5.80;;;8.40;23.50;;;;;;5086290;28;20397;-72
2024/01/28 10:48:23;;;;;;;11.70;4.55;;;8.50;23.90;;;;;;5114485;28;20476;-71
2024/01/28 10:50:51;;;;;;;7.22;4.43;;;8.60;23.60;;;;;;5106161;28;20415;-73
2024/01/28 10:53:18;;;;;;;13.48;6.40;;;8.60;23.70;;;;;;5115592;28;20457;-72
2024/01/28 10:55:44;;;;;;;13.73;5.87;;;8.70;24.10;;;;;;5098359;28;20517;-72
2024/01/28 10:58:11;;;;;;;11.53;4.13;;;8.70;24.30;;;;;;5097556;28;20479;-75
2024/01/28 11:00:38;;;;;;;8.25;4.45;;;8.80;23.80;;;;;;5116963;28;20424;-73
2024/01/28 11:03:06;;;;;;;18.48;7.43;;;8.80;23.90;;;;;;5108560;28;20399;-73
2024/01/28 11:05:34;;;;;;;10.15;4.70;;;8.80;24.10;;;;;;5104713;28;20388;-71
2024/01/28 11:08:00;;;;;;;12.73;5.30;;;8.90;23.10;;;;;;5116225;28;20463;-72
2024/01/28 11:10:28;;;;;;;9.70;4.30;;;8.90;23.40;;;;;;5114735;28;20415;-73
2024/01/28 11:12:54;;;;;;;7.30;3.80;;;9.00;23.10;;;;;;5116130;28;20377;-73
2024/01/28 11:15:20;;;;;;;14.77;6.77;;;9.10;22.50;;;;;;5118215;28;20377;-72
2024/01/28 11:17:46;;;;;;;7.70;4.00;;;9.10;23.20;;;;;;5103930;28;20397;-72
2024/01/28 11:20:17;;;;;;;10.15;4.60;;;9.20;22.60;;;;;;5096252;28;20382;-71
2024/01/28 11:22:54;;;;;;;16.55;9.02;;;9.30;22.30;;;;;;5093340;28;20386;-70
2024/01/28 11:25:24;;;;;;;11.18;4.78;;;9.30;23.00;;;;;;5094578;28;20374;-70
2024/01/28 11:28:07;;;;;;;21.98;9.77;;;9.30;22.30;;;;;;5074917;28;20798;-74
2024/01/28 11:30:37;;;;;;;13.85;6.40;;;9.50;22.50;;;;;;5100110;28;20384;-72
2024/01/28 11:33:13;;;;;;;17.60;9.20;;;9.50;22.70;;;;;;5113569;28;20417;-72
2024/01/28 11:35:44;;;;;;;16.00;5.45;;;9.50;24.90;;;;;;5114441;28;20377;-76
2024/01/28 11:38:14;;;;;;;8.93;4.20;;;9.50;23.00;;;;;;5114854;28;20427;-76
2024/01/28 11:40:40;;;;;;;10.00;3.37;;;9.60;22.10;;;;;;5096863;28;20429;-76
2024/01/28 11:43:07;;;;;;;7.25;3.75;;;9.70;21.30;;;;;;5095593;28;20382;-76
2024/01/28 11:45:35;;;;;;;8.20;3.60;;;9.70;21.30;;;;;;5094661;28;20410;-75
2024/01/28 11:48:11;;;;;;;13.52;4.60;;;9.70;21.80;;;;;;5077251;28;21134;-77
2024/01/28 11:50:38;;;;;;;8.47;3.33;;;9.80;21.90;;;;;;5094051;28;20378;-76
2024/01/28 11:53:08;;;;;;;12.10;3.65;;;9.80;20.70;;;;;;5095630;28;20476;-74
2024/01/28 11:55:34;;;;;;;9.32;3.78;;;9.80;21.30;;;;;;5094667;28;20384;-75
2024/01/28 11:57:59;;;;;;;8.33;3.60;;;9.90;21.30;;;;;;5094631;28;20403;-75
2024/01/28 12:00:26;;;;;;;8.33;3.87;;;9.90;21.10;;;;;;5111620;28;20398;-73
2024/01/28 12:02:52;;;;;;;9.80;3.50;;;9.90;21.90;;;;;;5111058;28;20430;-72
2024/01/28 12:05:18;;;;;;;9.75;4.30;;;9.90;21.30;;;;;;5100284;28;20473;-73
2024/01/28 12:07:45;;;;;;;8.32;3.15;;;10.00;21.60;;;;;;5107672;28;20417;-72
2024/01/28 12:10:12;;;;;;;8.85;3.35;;;10.10;20.70;;;;;;5101773;28;20945;-73
2024/01/28 12:12:42;;;;;;;8.77;4.10;;;10.20;20.90;;;;;;5109573;28;20573;-71
2024/01/28 12:15:09;;;;;;;10.57;3.90;;;10.20;21.10;;;;;;5110316;28;20942;-75
2024/01/28 12:17:35;;;;;;;10.30;3.47;;;10.20;21.00;;;;;;5110367;28;20396;-73
2024/01/28 12:20:03;;;;;;;7.85;3.70;;;10.30;20.70;;;;;;5091986;28;20872;-72
2024/01/28 12:22:37;;;;;;;6.25;3.75;;;10.40;20.80;;;;;;5109136;28;20399;-73
2024/01/28 12:25:12;;;;;;;8.93;2.92;;;10.50;20.90;;;;;;5089792;28;20378;-71
2024/01/28 12:27:39;;;;;;;6.07;3.22;;;10.40;20.30;;;;;;5089931;28;20736;-73
2024/01/28 12:30:09;;;;;;;7.10;3.60;;;10.50;20.00;;;;;;5095808;28;20471;-72
2024/01/28 12:32:38;;;;;;;6.30;2.92;;;10.60;19.90;;;;;;5108380;28;20417;-70
2024/01/28 12:35:06;;;;;;;6.70;3.38;;;10.60;20.00;;;;;;5107160;28;20383;-72
2024/01/28 12:37:36;;;;;;;7.00;3.30;;;10.60;19.80;;;;;;5091984;28;20382;-71
2024/01/28 12:40:01;;;;;;;11.53;4.00;;;10.70;20.30;;;;;;5093974;28;20400;-71
2024/01/28 12:42:27;;;;;;;6.20;3.45;;;10.60;20.80;;;;;;5108620;28;20407;-70
2024/01/28 12:44:53;;;;;;;10.98;4.35;;;10.70;21.50;;;;;;5108922;28;20388;-72
2024/01/28 12:47:18;;;;;;;6.27;3.63;;;10.80;20.90;;;;;;5106269;28;20880;-72